Impacts TAF Board INFO
FOR SITUATIONAL AWARENESS. NOT TO BE USED FOR FLIGHT PLANNING PURPOSES.
IDs:

KDEN - Denver Intl, CO, US

Issued at 2339 UTC 21 Jan 2018
Updated at 0021 UTC 22 Jan 2018
Potential Impact None Slight Moderate High
Time<<23/01Z 23/02Z 23/03Z 23/04Z 23/05Z 23/06Z 23/07Z 23/08Z 23/09Z 23/10Z 23/11Z 23/12Z 23/13Z
Type PRVL PRVL PRVL PRVL PRVL
VIS >6 >6 >6 >6 >6
CIG 220 220 220 220 220
Cover BKN BKN BKN BKN BKN
FltCat VFR VFR VFR VFR VFR
WX -- -- -- -- --
WDir 290 210 210 210 210
WSpd 8 8 8 8 8
WGst -- -- -- -- --

Raw TAF
KDEN 212339Z 2200/2306 33015G26KT 3SM -SN BR SCT015 OVC035
  TEMPO 2200/2203 1SM -SN OVC010
  FM220300 32010G20KT P6SM VCSH SCT020 BKN050
  FM220600 29009KT P6SM SCT040 BKN220
  FM221300 23010KT P6SM FEW140 SCT220
  FM221900 29008KT P6SM FEW140 BKN220
  FM230200 21008KT P6SM FEW150 BKN220


METAR Board
Radar Display
Forecast Discussion

FOR SITUATIONAL AWARENESS. NOT TO BE USED FOR FLIGHT PLANNING PURPOSES.